logo
App data

Brain Spa

Welcome to the Brain Spa, a place where you can learn to maximize your memory, improve your perception abilities, power up your language aptitude, and fine tune your logical thinking skills! 8 different mini-games to play emphasizing four distinct categories of mental abilities: Memory, Perception, Logic, Language.
Store | Hub | SteamDB
Developer: Ubisoft Publisher: Ubisoft
Genre: Casual
Languages: English
Tags: Casual (20)
Category: Single-player, Multi-player, Co-op
Release date: Sep 25, 2007
Price: $9.99
Owners: 0 .. 20,000
Followers: 32
Playtime total: 00:13 (average) 00:13 (median)

Steam Spy is still in beta, so expect major bugs.

Owners data:

Access restricted.

This feature is only available to users with special access rights. Sorry.

If you want to proceed, you need to register or log in first and then back Steam Spy on Patreon. Look for Indie or Pro pledge.

Don't forget to use the same email as on Steam Spy!

Audience in 2 weeks:

Access restricted.

This feature is only available to users with special access rights. Sorry.

If you want to proceed, you need to register or log in first and then back Steam Spy on Patreon. Look for Indie or Pro pledge.

Don't forget to use the same email as on Steam Spy!

Peak daily concurrent players:

CCU data courtesy of SteamDB. Used with permission.

Hourly concurrent players:

YouTube:

The views data is based on top 50 videos uploaded last week. Actual number of views might be more than the number shown.

The displayed number of videos uploaded yesterday is limited to 50, so if there were more videos uploaded, the number will still show 50.

If the game has commonly used word as its name (like "FEAR" or "Volume") its number of Youtube views might be wrong.

Games similar to this one:

# Game Release date
Price
Score rank
(Userscore / Metascore)
Owners
Players
Playtime (Median)
1 Puppy Dog: Jigsaw Puzzles Jul 19, 2016 $1.99100% (100%)0 .. 20,0000%00:00 (00:00)
2 Peggle Nights Oct 15, 2008 $4.9990% (94%/76%)200,000 .. 500,0001.16%00:10 (00:03)
3 Legends of Atlantis: Exodus Sep 3, 2015 $6.99N/A (N/A)0 .. 20,0000%00:00 (00:00)
4 Tradewinds Classics Jul 17, 2009 $4.99N/A (N/A)0 .. 20,0000%00:00 (00:00)
5 Chuzzle Deluxe Aug 30, 2006 $4.9987% (93%)50,000 .. 100,0000%00:00 (00:00)
6 Gnomes Garden 2 May 18, 2016 $0.49N/A (N/A)20,000 .. 50,0000.9%02:34 (01:30)
7 Hidden Object Bundle 4 in 1 Oct 6, 2015 $7.9987% (93%)20,000 .. 50,0002.27%02:56 (00:58)
8 Alice's Patchwork Mar 3, 2016 $4.9983% (92%)20,000 .. 50,0000.6%06:01 (02:00)
9 Princess Maker 2 Refine Sep 28, 2016 $19.9983% (92%)20,000 .. 50,0000%00:00 (00:00)
10 YOU DON’T KNOW JACK Feb 8, 2011 N/A83% (92%/71%)0 .. 20,0000%00:00 (00:00)
11 Farm Frenzy 2 Aug 27, 2008 $4.99N/A (N/A)0 .. 20,0000%00:00 (00:00)
12 Bejeweled 2 Deluxe Aug 30, 2006 $4.9980% (91%)50,000 .. 100,0000%00:00 (00:00)
13 Zuma Deluxe Aug 30, 2006 $4.9980% (91%)50,000 .. 100,0003.45%00:25 (00:08)
14 Kitty Cat: Jigsaw Puzzles Jul 18, 2016 $1.9980% (91%)50,000 .. 100,0000%00:00 (00:00)
15 Gemini Lost Sep 24, 2009 $6.99N/A (N/A)0 .. 20,0000%00:00 (00:00)
16 Stikbold! A Dodgeball Adventure Apr 1, 2016 $9.9973% (89%)50,000 .. 100,0000%00:00 (00:00)
17 Luxor 3 Nov 13, 2007 $9.9970% (88%)20,000 .. 50,0000%00:00 (00:00)
18 Mr Nibbles Forever Apr 29, 2016 $0.99N/A (N/A)0 .. 20,0000%00:00 (00:00)
19 Baseball Mogul 2015 Jul 24, 2015 $4.99N/A (N/A)20,000 .. 50,0000%00:00 (00:00)
20 Shufflepuck Cantina Deluxe Dec 6, 2013 $9.9970% (88%)100,000 .. 200,0001.49%01:43 (00:55)
21 Putt-Putt and Fatty Bear's Activity Pack May 15, 2014 $4.99N/A (N/A)0 .. 20,0000%00:00 (00:00)
22 Puzzler World May 28, 2010 $4.9968% (87%)50,000 .. 100,0000%00:00 (00:00)
23 Hidden Object 6-in-1 bundle Mar 16, 2016 $11.9968% (87%)20,000 .. 50,0000%00:00 (00:00)
24 Big Thinkers 1st Grade Aug 18, 2015 $6.99N/A (N/A)0 .. 20,0000%00:00 (00:00)
25 Among the Heavens Nov 6, 2015 $2.9965% (86%)50,000 .. 100,0000.55%00:46 (00:15)
26 Pretty Girls Panic! Dec 19, 2016 $1.9965% (86%)20,000 .. 50,00010.34%02:19 (03:39)
27 Plant Tycoon Sep 27, 2007 $9.99N/A (N/A)0 .. 20,0000%00:00 (00:00)
28 Space Codex May 17, 2016 $0.4965% (86%)50,000 .. 100,0000.43%04:32 (01:30)
29 Gnomes Garden Dec 18, 2015 $4.9962% (85%)20,000 .. 50,0002.54%05:35 (05:34)
30 Cranky Cat Jun 5, 2013 $2.99N/A (N/A)0 .. 20,0000%00:00 (00:00)
31 Urban Trial Freestyle Sep 18, 2013 $6.9957% (83%/58%)100,000 .. 200,0000.75%00:01 (00:00)
32 Little Racers STREET Feb 6, 2014 $5.9957% (83%/62%)100,000 .. 200,0000.58%01:06 (00:22)
33 Brink of Consciousness: The Lonely Hearts Murders Nov 24, 2014 $9.9957% (83%)0 .. 20,0000%00:00 (00:00)
34 BasketBelle Dec 9, 2014 $4.9955% (82%)0 .. 20,0000%00:00 (00:00)
35 Combat Wings: Battle of Britain Oct 14, 2009 $0.7455% (82%)100,000 .. 200,0000%00:00 (00:00)
36 Virtual Villagers - The Secret City May 28, 2008 $9.99N/A (N/A)0 .. 20,0000%00:00 (00:00)
37 My Riding Stables: Life with Horses Mar 27, 2014 $9.9953% (81%)0 .. 20,0000%00:00 (00:00)
38 Crash Dive Jul 6, 2015 $6.9953% (81%)0 .. 20,0000%00:00 (00:00)
39 Venice Deluxe Jun 26, 2007 $4.99N/A (N/A)20,000 .. 50,0000%00:00 (00:00)
40 Crash Time 3 Nov 25, 2009 $5.9950% (80%)20,000 .. 50,0000%00:00 (00:00)
41 Mahjong Destiny Jun 17, 2016 $2.9950% (80%)20,000 .. 50,0000%00:00 (00:00)
42 7 Wonders: Treasures of Seven Nov 14, 2008 $9.9950% (80%)20,000 .. 50,0001.8%00:01 (00:00)
43 Rotastic Oct 11, 2012 $9.99N/A (N/A)0 .. 20,0000%00:00 (00:00)
44 Mystery P.I. - Lost in Los Angeles Jul 27, 2009 $4.99N/A (N/A)20,000 .. 50,0000%00:00 (00:00)
45 Mystery Case Files: Madame Fate Dec 14, 2007 $6.99N/A (N/A)0 .. 20,0000%00:00 (00:00)
46 Radial-G : Racing Revolved Mar 28, 2016 $9.9948% (79%)0 .. 20,0000%00:00 (00:00)
47 Typer Shark! Deluxe Aug 30, 2006 $4.9948% (79%)20,000 .. 50,0000%00:00 (00:00)
48 Qvadriga Jun 13, 2014 $19.9946% (78%/72%)20,000 .. 50,0000%00:00 (00:00)
49 Virtual Villagers: The Lost Children Feb 14, 2007 $9.99N/A (N/A)0 .. 20,0000%00:00 (00:00)
50 Sea Legends: Phantasmal Light Collector's Edition Sep 17, 2014 $4.9943% (76%)20,000 .. 50,0000%00:00 (00:00)
51 Elementary My Dear Majesty! Apr 16, 2015 $0.9941% (75%)20,000 .. 50,0000%00:00 (00:00)
52 The Wizard's Pen Feb 18, 2009 $4.99N/A (N/A)20,000 .. 50,0000%00:00 (00:00)
53 Pretty Girls Mahjong Solitaire Aug 24, 2015 $4.9941% (75%)20,000 .. 50,0003.9%01:25 (01:08)
54 Cooking Dash Aug 12, 2009 $9.99N/A (N/A)0 .. 20,0000%00:00 (00:00)
55 Zombie Solitaire Jul 3, 2014 $8.9939% (74%)0 .. 20,0000%00:00 (00:00)
56 Amazing Adventures Around the World Sep 17, 2008 $4.99N/A (N/A)20,000 .. 50,0000%00:00 (00:00)
57 Toilet Tycoon Sep 17, 2015 $4.9939% (74%)0 .. 20,0000%00:00 (00:00)
58 Home Design 3D Nov 20, 2015 $9.9937% (73%)20,000 .. 50,0000%00:00 (00:00)
59 Ski Region Simulator - Gold Edition Jan 31, 2014 $9.9937% (73%)20,000 .. 50,0000%00:00 (00:00)
60 Evolution Planet: Gold Edition Jul 7, 2016 $4.99N/A (N/A)0 .. 20,0000%00:00 (00:00)
61 Monster Mash Jul 17, 2009 $4.99N/A (N/A)0 .. 20,0000%00:00 (00:00)
62 Hotel Dash Suite Success Dec 24, 2009 $6.99N/A (N/A)0 .. 20,0000%00:00 (00:00)
63 Vehicle Simulator Dec 9, 2015 $2534% (71%)0 .. 20,0000%00:00 (00:00)
64 aerofly RC 7 Nov 6, 2014 $39.9934% (71%)0 .. 20,0000%00:00 (00:00)
65 Football Mogul 2014 May 28, 2015 $4.99N/A (N/A)20,000 .. 50,0001.54%00:01 (00:00)
66 Runaway Express Mystery Sep 23, 2014 $6.99N/A (N/A)0 .. 20,0000%00:00 (00:00)
67 StuntMANIA Reloaded Nov 13, 2014 $1.6932% (70%)20,000 .. 50,0000%00:00 (00:00)
68 Polaris Sector Mar 22, 2016 $39.9931% (69%/76%)0 .. 20,0000%00:00 (00:00)
69 MiniDrivers Aug 31, 2015 $5.9929% (68%)20,000 .. 50,0000%00:00 (00:00)
70 Diner Mania Jun 25, 2015 $3.9929% (68%)0 .. 20,0000%00:00 (00:00)
71 Chocolatier: Decadence by Design Aug 12, 2009 $9.9928% (67%)0 .. 20,0000%00:00 (00:00)
72 Mystery P.I. - The Vegas Heist Jun 4, 2008 $4.99N/A (N/A)20,000 .. 50,0000%00:00 (00:00)
73 Luxor Jun 10, 2008 $9.99N/A (N/A)0 .. 20,0000%00:00 (00:00)
74 Zooloretto Apr 3, 2014 $2.99N/A (N/A)0 .. 20,0000%00:00 (00:00)
75 Pro Cycling Manager 2014 Jun 19, 2014 $9.9924% (64%)20,000 .. 50,0000%00:00 (00:00)
76 Castle: Never Judge a Book by its Cover Jun 9, 2014 $9.9924% (64%)20,000 .. 50,0000%00:00 (00:00)
77 Bridge It + Nov 18, 2013 $6.9923% (63%)20,000 .. 50,0000%00:00 (00:00)
78 Aerofly FS 1 Flight Simulator Oct 17, 2012 $19.9923% (63%)0 .. 20,0000%00:00 (00:00)
79 City Life 2008 Jul 18, 2008 $9.9923% (63%)20,000 .. 50,0000%00:00 (00:00)
80 Meridian: Age of Invention Sep 30, 2015 $2.9923% (63%)20,000 .. 50,0000%00:00 (00:00)
81 PAC-MAN CHAMPIONSHIP EDITION 2 Sep 13, 2016 $12.9923% (63%)20,000 .. 50,0000%00:00 (00:00)
82 Air Conflicts: Secret Wars Sep 30, 2011 $5.9920% (61%/65%)50,000 .. 100,0000%00:00 (00:00)
83 Jane Angel: Templar Mystery Sep 17, 2014 $4.99N/A (N/A)20,000 .. 50,0000%00:00 (00:00)
84 Hacker Evolution: Untold Sep 14, 2010 $4.9918% (59%)200,000 .. 500,0000%00:00 (00:00)
85 Cities in Motion 2 Apr 2, 2013 $19.9918% (59%/72%)500,000 .. 1,000,0000.6%05:34 (05:10)
86 DinerTown Tycoon Sep 30, 2009 $9.99N/A (N/A)0 .. 20,0000%00:00 (00:00)
87 Riding Star - Horse Championship! Mar 27, 2014 $9.99N/A (N/A)0 .. 20,0000%00:00 (00:00)
88 Luxor: Quest for the Afterlife Dec 15, 2008 $9.99N/A (N/A)20,000 .. 50,0000%00:00 (00:00)
89 Kumoon : Ballistic Physics Puzzle Nov 10, 2015 $2.9915% (55%)0 .. 20,0000%00:00 (00:00)
90 Mystery P.I. - The New York Fortune Jan 14, 2009 $4.99N/A (N/A)20,000 .. 50,0000%00:00 (00:00)
91 Pacific Storm Allies May 25, 2007 $7.9913% (53%/60%)50,000 .. 100,0001.56%03:04 (01:01)
92 Poker Pretty Girls Battle: Texas Hold'em Oct 21, 2015 $9.9913% (52%)20,000 .. 50,0005.8%02:05 (02:30)
93 Speed Kills May 16, 2014 $1.2912% (51%)200,000 .. 500,0000.43%00:15 (00:10)
94 Firefighters 2014 May 21, 2014 $19.9911% (49%)50,000 .. 100,0000%00:00 (00:00)
95 300 Dwarves Jun 5, 2014 $6.9910% (48%)0 .. 20,0000%00:00 (00:00)
96 EVEREST VR Aug 2, 2016 $14.999% (47%)0 .. 20,0000%00:00 (00:00)
97 Shannon Tweed's Attack Of The Groupies Apr 1, 2014 $4.99N/A (N/A)0 .. 20,0000%00:00 (00:00)
98 Lords of Football Apr 5, 2013 $14.999% (46%/52%)20,000 .. 50,0000%00:00 (00:00)
99 Luxor 2 Dec 8, 2005 $9.99N/A (N/A)0 .. 20,0000%00:00 (00:00)
100 Ludo Supremo Jun 8, 2016 $2.998% (45%)20,000 .. 50,0000.68%00:57 (00:19)
101 Theme Park Studio Dec 2, 2016 $29.998% (45%)0 .. 20,0000%00:00 (00:00)
102 Transport Giant Sep 5, 2014 $9.998% (45%)100,000 .. 200,0000%00:00 (00:00)
103 Ship Simulator: Maritime Search and Rescue Jul 1, 2014 $17.997% (42%)20,000 .. 50,0000%00:00 (00:00)
104 Silent Hunter 5: Battle of the Atlantic Mar 2010 $9.997% (41%/62%)50,000 .. 100,0000%00:00 (00:00)
105 Echelon Jul 3, 2014 $3.996% (39%/70%)0 .. 20,0000%00:00 (00:00)
106 RECYCLE Sep 3, 2014 $9.996% (38%)20,000 .. 50,0000%00:00 (00:00)
107 Firefighters - The Simulation Aug 31, 2016 $14.99N/A (N/A)0 .. 20,0000%00:00 (00:00)
108 Diner Dash: Hometown Hero Aug 12, 2009 $9.994% (34%)0 .. 20,0000%00:00 (00:00)
109 Tetris Ultimate Dec 10, 2015 $14.994% (31%)0 .. 20,0000%00:00 (00:00)
110 Industry Empire Jul 30, 2014 $19.994% (31%)20,000 .. 50,0000%00:00 (00:00)
111 City Play May 19, 2016 $3.99N/A (N/A)0 .. 20,0000%00:00 (00:00)
112 The Terminal 2 Aug 8, 2014 $4.992% (24%)0 .. 20,0000%00:00 (00:00)
113 G-Ball May 28, 2014 $0.992% (19%)0 .. 20,0000%00:00 (00:00)
114 Airline Tycoon 2 Oct 24, 2011 $9.991% (16%/57%)50,000 .. 100,0000%00:00 (00:00)
115 The Flying Dutchman Sep 12, 2014 $4.991% (3%)0 .. 20,0000%00:00 (00:00)
116 Chainz 2: Relinked Jul 13, 2009 $9.99N/A (N/A)0 .. 20,0000%00:00 (00:00)
117 Fantastic 4 In A Row 2 Aug 15, 2016 $1.99N/A (N/A)50,000 .. 100,0000%00:00 (00:00)
118 Bayla Bunny Jun 13, 2016 $2.99N/A (N/A)50,000 .. 100,0000%00:00 (00:00)
119 TriJinx: A Kristine Kross Mystery Dec 31, 2007 $6.99N/A (N/A)0 .. 20,0000%00:00 (00:00)
120 Discovery! A Seek and Find Adventure Jul 29, 2008 $9.99N/A (N/A)0 .. 20,0000%00:00 (00:00)
121 Dessert Storm Oct 23, 2016 $1.99N/A (N/A)20,000 .. 50,0000%00:00 (00:00)
122 Bubble Blowout Oct 24, 2016 $1.99N/A (N/A)20,000 .. 50,0000%00:00 (00:00)
123 Barnyard Mahjong 3 Jul 29, 2016 $4.99N/A (N/A)50,000 .. 100,0000%00:00 (00:00)
124 Them - The Summoning May 16, 2014 $4.99N/A (N/A)0 .. 20,0000%00:00 (00:00)
125 Farm Frenzy 3 Sep 11, 2009 $9.99N/A (N/A)0 .. 20,0000%00:00 (00:00)
126 Rush for gold: California Mar 9, 2016 $3.99N/A (N/A)50,000 .. 100,0000.66%01:44 (01:09)
127 The Hidden Dragon Jul 26, 2016 $4.99N/A (N/A)0 .. 20,0000%00:00 (00:00)
128 Tropical Fish Shop 2 Mar 9, 2016 $3.99N/A (N/A)0 .. 20,0000%00:00 (00:00)
129 Solitaire Christmas. Match 2 Cards Dec 24, 2015 $4.99N/A (N/A)20,000 .. 50,0001.68%03:52 (03:52)
130 Heartomics: Nokori Mar 25, 2016 $1.99N/A (N/A)0 .. 20,0000%00:00 (00:00)
131 Mystery P.I. - The Lottery Ticket Oct 16, 2007 $4.99N/A (N/A)20,000 .. 50,0000%00:00 (00:00)

Owners of this game also own:

Access restricted.

This feature is only available to users with special access rights. Sorry.

If you want to proceed, you need to register or log in first and then back Steam Spy on Patreon. Look for Indie or Pro pledge.

Don't forget to use the same email as on Steam Spy!

Playtime distribution:

Access restricted.

This feature is only available to users with special access rights. Sorry.

If you want to proceed, you need to register or log in first and then back Steam Spy on Patreon. Look for Indie or Pro pledge.

Don't forget to use the same email as on Steam Spy!

Playtime (2 weeks):

Access restricted.

This feature is only available to users with special access rights. Sorry.

If you want to proceed, you need to register or log in first and then back Steam Spy on Patreon. Look for Indie or Pro pledge.

Don't forget to use the same email as on Steam Spy!

User reviews:

Login required.

Please register or log in to see this information.